Time;durP1;ratioP1;P1;durP2;ratioP2;P2;SDS_P1;SDS_P2;PMS_P1;PMS_P2;Temp;Humidity;BMP_temperature;BMP_pressure;BME280_temperature;BME280_humidity;BME280_pressure;Samples;Min_cycle;Max_cycle;Signal;HPM_P1;HPM_P2
2022/04/24 00:00:07;;;;;;;15.10;5.82;;;;;;;;;;5038468;28;20056;-64
2022/04/24 00:02:33;;;;;;;7.63;5.20;;;;;;;;;;5038810;28;20052;-64
2022/04/24 00:04:59;;;;;;;7.53;5.05;;;;;;;;;;5028155;28;20038;-64
2022/04/24 00:07:24;;;;;;;8.95;5.35;;;;;;;;;;5013573;28;20030;-63
2022/04/24 00:09:50;;;;;;;7.10;5.30;;;;;;;;;;5029050;28;20026;-63
2022/04/24 00:12:18;;;;;;;7.57;5.43;;;;;;;;;;5035467;28;20094;-64
2022/04/24 00:14:47;;;;;;;7.68;5.70;;;;;;;;;;5038239;28;20029;-64
2022/04/24 00:17:15;;;;;;;7.43;5.35;;;;;;;;;;5027729;28;20133;-63
2022/04/24 00:19:42;;;;;;;8.05;5.60;;;;;;;;;;5029133;28;20431;-63
2022/04/24 00:22:07;;;;;;;8.15;5.70;;;;;;;;;;5040596;28;20467;-63
2022/04/24 00:24:33;;;;;;;8.20;5.90;;;;;;;;;;5031825;28;20045;-64
2022/04/24 00:26:59;;;;;;;8.55;6.10;;;;;;;;;;5020381;28;20071;-64
2022/04/24 00:29:24;;;;;;;8.73;5.72;;;;;;;;;;5033065;28;20029;-64
2022/04/24 00:31:50;;;;;;;8.65;5.60;;;;;;;;;;5030245;28;20113;-64
2022/04/24 00:34:15;;;;;;;9.35;5.90;;;;;;;;;;5039369;28;20028;-63
2022/04/24 00:36:40;;;;;;;8.93;6.13;;;;;;;;;;5033889;28;20033;-63
2022/04/24 00:39:06;;;;;;;8.85;5.80;;;;;;;;;;5036545;28;20065;-63
2022/04/24 00:41:32;;;;;;;8.60;6.00;;;;;;;;;;5036393;28;20467;-64
2022/04/24 00:43:57;;;;;;;8.02;5.72;;;;;;;;;;5016297;28;20038;-63
2022/04/24 00:47:01;;;;;;;7.68;5.85;;;;;;;;;;5027080;28;20072;-63
2022/04/24 00:49:26;;;;;;;7.55;5.53;;;;;;;;;;4976520;28;20544;-64
2022/04/24 00:51:53;;;;;;;7.63;5.50;;;;;;;;;;5007505;28;20053;-64
2022/04/24 00:54:18;;;;;;;8.35;5.90;;;;;;;;;;5018683;28;20525;-64
2022/04/24 00:56:44;;;;;;;9.45;5.82;;;;;;;;;;5021222;28;20030;-64
2022/04/24 00:59:11;;;;;;;9.00;5.82;;;;;;;;;;5014172;28;20399;-64
2022/04/24 01:01:38;;;;;;;8.55;5.70;;;;;;;;;;5034184;28;20025;-63
2022/04/24 01:04:05;;;;;;;8.85;5.75;;;;;;;;;;5036095;28;20025;-63
2022/04/24 01:06:41;;;;;;;9.90;6.50;;;;;;;;;;5027551;28;20025;-63
2022/04/24 01:09:17;;;;;;;8.80;5.97;;;;;;;;;;5032594;28;20048;-63
2022/04/24 01:11:45;;;;;;;8.90;6.20;;;;;;;;;;5016594;28;20419;-64
2022/04/24 01:14:11;;;;;;;9.70;6.15;;;;;;;;;;5024176;28;20395;-63
2022/04/24 01:16:37;;;;;;;8.43;5.72;;;;;;;;;;5029024;28;20395;-63
2022/04/24 01:19:04;;;;;;;8.90;6.00;;;;;;;;;;5022170;28;20136;-64
2022/04/24 01:21:30;;;;;;;8.02;5.70;;;;;;;;;;5020889;28;20029;-63
2022/04/24 01:23:55;;;;;;;8.13;5.90;;;;;;;;;;5047335;28;20507;-63
2022/04/24 01:26:21;;;;;;;8.88;5.88;;;;;;;;;;5026423;28;20244;-63
2022/04/24 01:28:46;;;;;;;9.00;6.38;;;;;;;;;;5022098;28;20025;-64
2022/04/24 01:31:12;;;;;;;8.57;6.10;;;;;;;;;;5037119;28;20025;-64
2022/04/24 01:33:37;;;;;;;9.18;6.70;;;;;;;;;;5031439;28;20479;-64
2022/04/24 01:36:03;;;;;;;8.15;5.95;;;;;;;;;;5049308;28;20033;-64
2022/04/24 01:38:29;;;;;;;8.50;6.35;;;;;;;;;;5035133;28;20431;-64
2022/04/24 01:40:55;;;;;;;8.13;6.15;;;;;;;;;;5020116;28;20048;-63
2022/04/24 01:43:20;;;;;;;9.15;6.20;;;;;;;;;;5027482;28;20038;-64
2022/04/24 01:45:46;;;;;;;9.13;6.47;;;;;;;;;;5021843;28;20103;-64
2022/04/24 01:48:11;;;;;;;9.82;6.45;;;;;;;;;;5024513;28;20048;-64
2022/04/24 01:50:36;;;;;;;9.82;6.70;;;;;;;;;;5014916;28;20099;-64
2022/04/24 01:53:02;;;;;;;9.38;6.65;;;;;;;;;;5028799;28;20115;-64
2022/04/24 01:55:27;;;;;;;9.52;6.60;;;;;;;;;;5033468;28;20112;-64
2022/04/24 01:57:53;;;;;;;11.32;6.60;;;;;;;;;;5024751;28;20057;-64
2022/04/24 02:00:19;;;;;;;10.38;6.68;;;;;;;;;;5021116;28;20033;-64
2022/04/24 02:02:45;;;;;;;9.32;6.90;;;;;;;;;;5040575;28;20029;-64
2022/04/24 02:05:10;;;;;;;10.18;6.90;;;;;;;;;;5016381;28;20116;-64
2022/04/24 02:07:35;;;;;;;11.32;7.22;;;;;;;;;;5027984;28;20025;-64
2022/04/24 02:10:01;;;;;;;8.95;7.07;;;;;;;;;;5022572;28;20104;-64
2022/04/24 02:12:26;;;;;;;10.00;7.15;;;;;;;;;;5021875;28;20502;-64
2022/04/24 02:14:51;;;;;;;11.50;7.30;;;;;;;;;;5023201;28;20080;-64
2022/04/24 02:17:17;;;;;;;10.55;7.25;;;;;;;;;;5014802;28;20030;-64
2022/04/24 02:19:42;;;;;;;11.25;7.50;;;;;;;;;;5020270;28;20045;-64
2022/04/24 02:22:08;;;;;;;9.88;6.88;;;;;;;;;;5023659;28;20050;-63
2022/04/24 02:24:33;;;;;;;11.18;6.82;;;;;;;;;;5012167;28;20030;-63
2022/04/24 02:26:58;;;;;;;12.00;6.97;;;;;;;;;;5017169;28;20365;-64
2022/04/24 02:29:27;;;;;;;9.43;6.97;;;;;;;;;;5017877;28;20116;-64
2022/04/24 02:31:52;;;;;;;10.70;7.28;;;;;;;;;;5039936;28;20159;-64
2022/04/24 02:34:17;;;;;;;11.18;7.78;;;;;;;;;;5037996;28;20108;-64
2022/04/24 02:36:43;;;;;;;10.45;7.45;;;;;;;;;;5025272;28;20144;-63
2022/04/24 02:39:08;;;;;;;10.70;7.68;;;;;;;;;;5023486;28;20037;-64
2022/04/24 02:41:34;;;;;;;11.52;7.50;;;;;;;;;;5026092;28;20437;-64
2022/04/24 02:43:59;;;;;;;11.20;7.60;;;;;;;;;;5030462;28;20491;-64
2022/04/24 02:46:24;;;;;;;13.25;7.88;;;;;;;;;;5020629;28;20036;-64
2022/04/24 02:48:50;;;;;;;13.98;7.65;;;;;;;;;;5020286;28;20033;-64
2022/04/24 02:51:15;;;;;;;11.45;8.10;;;;;;;;;;5029793;28;21333;-64
2022/04/24 02:53:41;;;;;;;12.23;8.07;;;;;;;;;;5037023;28;20053;-63
2022/04/24 02:56:07;;;;;;;11.65;8.25;;;;;;;;;;5031238;28;20429;-63
2022/04/24 02:58:32;;;;;;;13.45;8.43;;;;;;;;;;5043487;28;20038;-64
2022/04/24 03:00:59;;;;;;;12.23;8.38;;;;;;;;;;5033728;28;20034;-64
2022/04/24 03:03:24;;;;;;;13.35;8.15;;;;;;;;;;5039007;28;20033;-64
2022/04/24 03:05:50;;;;;;;12.55;7.63;;;;;;;;;;5011957;28;20890;-64
2022/04/24 03:08:16;;;;;;;12.63;8.27;;;;;;;;;;5021182;28;20364;-63
2022/04/24 03:10:42;;;;;;;10.95;7.72;;;;;;;;;;5026894;28;20105;-64
2022/04/24 03:13:08;;;;;;;11.73;7.95;;;;;;;;;;5026817;28;20033;-64
2022/04/24 03:15:33;;;;;;;11.55;8.27;;;;;;;;;;5023986;28;20041;-64
2022/04/24 03:17:59;;;;;;;11.90;8.32;;;;;;;;;;5025408;28;20372;-65
2022/04/24 03:20:24;;;;;;;10.73;7.72;;;;;;;;;;5023286;28;20030;-64
2022/04/24 03:22:50;;;;;;;13.20;8.05;;;;;;;;;;5019258;28;20300;-64
2022/04/24 03:25:16;;;;;;;11.70;7.93;;;;;;;;;;5014229;28;20038;-63
2022/04/24 03:27:41;;;;;;;11.93;8.40;;;;;;;;;;5042948;28;20041;-64
2022/04/24 03:30:12;;;;;;;12.20;8.00;;;;;;;;;;5034711;28;20033;-63
2022/04/24 03:32:38;;;;;;;11.13;7.70;;;;;;;;;;5030074;28;20053;-63
2022/04/24 03:35:07;;;;;;;12.27;8.07;;;;;;;;;;5020394;28;20037;-64
2022/04/24 03:37:32;;;;;;;14.88;8.43;;;;;;;;;;5016328;28;20030;-64
2022/04/24 03:39:58;;;;;;;13.80;8.38;;;;;;;;;;5034289;28;20120;-64
2022/04/24 03:42:25;;;;;;;11.40;7.88;;;;;;;;;;5041339;28;20112;-64
2022/04/24 03:44:53;;;;;;;12.15;7.70;;;;;;;;;;5038220;28;20021;-64
2022/04/24 03:47:19;;;;;;;12.60;7.90;;;;;;;;;;5032501;28;20395;-63
2022/04/24 03:49:44;;;;;;;10.90;7.32;;;;;;;;;;5016367;28;20040;-64
2022/04/24 03:52:11;;;;;;;10.13;7.50;;;;;;;;;;5017648;28;20026;-63
2022/04/24 03:54:37;;;;;;;14.35;7.25;;;;;;;;;;5032857;28;20025;-64
2022/04/24 03:57:02;;;;;;;12.80;7.25;;;;;;;;;;5048183;28;20394;-64
2022/04/24 03:59:29;;;;;;;12.35;7.32;;;;;;;;;;5014785;28;20128;-64
2022/04/24 04:01:54;;;;;;;12.18;7.25;;;;;;;;;;5021725;28;20033;-64
2022/04/24 04:04:20;;;;;;;11.02;7.13;;;;;;;;;;5023074;28;20113;-64
2022/04/24 04:06:45;;;;;;;10.80;7.72;;;;;;;;;;5035237;28;20061;-64
2022/04/24 04:09:10;;;;;;;10.95;7.13;;;;;;;;;;5036631;28;20076;-65
2022/04/24 04:11:36;;;;;;;10.00;6.88;;;;;;;;;;5024235;28;20036;-64
2022/04/24 04:14:01;;;;;;;11.52;6.95;;;;;;;;;;5051955;28;20064;-64
2022/04/24 04:16:26;;;;;;;11.88;6.90;;;;;;;;;;5028520;28;20037;-64
2022/04/24 04:18:52;;;;;;;11.02;7.13;;;;;;;;;;5026234;28;20045;-65
2022/04/24 04:21:17;;;;;;;11.60;7.20;;;;;;;;;;5024188;28;20501;-64
2022/04/24 04:23:43;;;;;;;11.85;6.82;;;;;;;;;;5023179;28;20108;-64
2022/04/24 04:26:08;;;;;;;10.57;6.85;;;;;;;;;;5031929;28;20037;-64
2022/04/24 04:28:34;;;;;;;12.23;6.38;;;;;;;;;;5042714;28;20025;-64
2022/04/24 04:30:59;;;;;;;14.27;7.05;;;;;;;;;;5044563;28;20037;-65
2022/04/24 04:33:24;;;;;;;11.50;7.05;;;;;;;;;;5043165;28;20387;-64
2022/04/24 04:35:50;;;;;;;9.90;6.82;;;;;;;;;;5044948;28;20047;-64
2022/04/24 04:38:15;;;;;;;11.05;6.70;;;;;;;;;;5052694;28;20300;-64
2022/04/24 04:40:41;;;;;;;12.25;7.32;;;;;;;;;;5023986;28;20045;-64
2022/04/24 04:43:06;;;;;;;10.18;6.13;;;;;;;;;;5042707;28;20438;-65
2022/04/24 04:45:32;;;;;;;10.40;6.07;;;;;;;;;;5042356;28;20048;-64
2022/04/24 04:47:58;;;;;;;10.38;6.97;;;;;;;;;;5027497;28;20115;-63
2022/04/24 04:50:23;;;;;;;8.32;5.78;;;;;;;;;;5015127;28;20034;-64
2022/04/24 04:52:48;;;;;;;10.63;6.70;;;;;;;;;;5033917;28;20032;-64
2022/04/24 04:55:14;;;;;;;9.90;6.35;;;;;;;;;;5050495;28;20383;-64
2022/04/24 04:57:39;;;;;;;9.68;6.10;;;;;;;;;;5031985;28;20087;-63
2022/04/24 05:00:07;;;;;;;10.10;5.97;;;;;;;;;;5034202;28;20030;-64
2022/04/24 05:02:38;;;;;;;11.52;6.28;;;;;;;;;;5033322;28;20146;-64
2022/04/24 05:05:06;;;;;;;10.15;6.43;;;;;;;;;;5036590;28;20049;-64
2022/04/24 05:07:31;;;;;;;9.38;5.72;;;;;;;;;;5042835;28;20478;-65
2022/04/24 05:09:57;;;;;;;8.90;6.20;;;;;;;;;;5052192;28;20068;-64
2022/04/24 05:12:27;;;;;;;9.07;5.70;;;;;;;;;;5045294;28;20079;-64
2022/04/24 05:14:52;;;;;;;10.80;6.67;;;;;;;;;;5023591;28;20050;-64
2022/04/24 05:17:18;;;;;;;9.25;5.90;;;;;;;;;;5020609;28;20100;-64
2022/04/24 05:19:43;;;;;;;10.13;6.38;;;;;;;;;;5029503;28;20124;-64
2022/04/24 05:22:09;;;;;;;9.15;5.80;;;;;;;;;;5051571;28;20044;-63
2022/04/24 05:24:34;;;;;;;9.68;6.00;;;;;;;;;;5052044;28;20041;-64
2022/04/24 05:27:01;;;;;;;8.90;5.82;;;;;;;;;;5042716;28;20032;-64
2022/04/24 05:29:27;;;;;;;10.57;6.60;;;;;;;;;;5043033;28;20107;-64
2022/04/24 05:31:53;;;;;;;11.07;6.38;;;;;;;;;;5043089;28;20487;-64
2022/04/24 05:34:19;;;;;;;9.43;6.00;;;;;;;;;;5045162;28;20036;-63
2022/04/24 05:36:44;;;;;;;9.55;5.90;;;;;;;;;;5043094;28;20052;-64
2022/04/24 05:39:09;;;;;;;9.10;6.07;;;;;;;;;;5050695;28;20044;-64
2022/04/24 05:41:35;;;;;;;9.45;6.18;;;;;;;;;;5039910;28;20033;-64
2022/04/24 05:44:00;;;;;;;10.30;6.03;;;;;;;;;;5043112;28;20043;-64
2022/04/24 05:46:25;;;;;;;12.52;5.88;;;;;;;;;;5051039;28;20101;-64
2022/04/24 05:48:51;;;;;;;9.35;5.90;;;;;;;;;;5035344;28;20025;-63
2022/04/24 05:51:16;;;;;;;9.00;5.70;;;;;;;;;;5049476;28;20368;-63
2022/04/24 05:53:41;;;;;;;10.48;6.00;;;;;;;;;;5051664;28;20052;-63
2022/04/24 05:56:07;;;;;;;9.65;5.90;;;;;;;;;;5050916;28;20028;-63
2022/04/24 05:58:32;;;;;;;9.68;5.97;;;;;;;;;;5050377;28;20057;-64
2022/04/24 06:00:58;;;;;;;9.23;5.80;;;;;;;;;;5043806;28;20048;-63
2022/04/24 06:03:23;;;;;;;9.38;5.85;;;;;;;;;;5049129;28;20040;-64
2022/04/24 06:05:48;;;;;;;9.55;5.90;;;;;;;;;;5040471;28;20029;-63
2022/04/24 06:08:14;;;;;;;8.82;5.95;;;;;;;;;;5045072;28;20083;-63
2022/04/24 06:10:40;;;;;;;10.98;5.90;;;;;;;;;;5026563;28;20499;-63
2022/04/24 06:13:05;;;;;;;9.18;5.82;;;;;;;;;;5043331;28;20561;-63
2022/04/24 06:15:30;;;;;;;8.57;6.00;;;;;;;;;;5020060;28;20030;-63
2022/04/24 06:17:57;;;;;;;10.20;5.85;;;;;;;;;;5032421;28;20099;-64
2022/04/24 06:20:25;;;;;;;9.98;6.10;;;;;;;;;;5032546;28;20032;-64
2022/04/24 06:22:58;;;;;;;10.35;5.70;;;;;;;;;;5036659;28;20517;-63
2022/04/24 06:25:27;;;;;;;10.73;5.95;;;;;;;;;;5045704;28;20474;-63
2022/04/24 06:27:53;;;;;;;8.52;5.70;;;;;;;;;;5046869;28;20029;-63
2022/04/24 06:30:21;;;;;;;8.27;5.80;;;;;;;;;;5018218;28;20034;-65
2022/04/24 06:32:46;;;;;;;11.77;6.95;;;;;;;;;;5031377;28;20033;-63
2022/04/24 06:35:17;;;;;;;9.57;5.88;;;;;;;;;;5046398;28;20094;-63
2022/04/24 06:37:55;;;;;;;7.68;5.57;;;;;;;;;;5040597;28;20517;-63
2022/04/24 06:40:23;;;;;;;9.48;6.05;;;;;;;;;;5036297;28;20053;-63
2022/04/24 06:42:51;;;;;;;8.85;6.10;;;;;;;;;;5040877;28;20064;-64
2022/04/24 06:45:20;;;;;;;8.10;5.60;;;;;;;;;;5016960;28;20042;-63
2022/04/24 06:47:45;;;;;;;9.27;6.40;;;;;;;;;;5030914;28;20036;-64
2022/04/24 06:50:11;;;;;;;10.38;6.03;;;;;;;;;;5035926;28;20121;-64
2022/04/24 06:52:37;;;;;;;11.73;6.10;;;;;;;;;;5050055;28;20044;-64
2022/04/24 06:55:04;;;;;;;9.48;5.90;;;;;;;;;;5038927;28;20723;-64
2022/04/24 06:57:29;;;;;;;8.73;5.95;;;;;;;;;;5037945;28;20026;-64
2022/04/24 06:59:55;;;;;;;10.63;6.30;;;;;;;;;;5032464;28;20131;-64
2022/04/24 07:02:20;;;;;;;10.00;6.13;;;;;;;;;;5036869;28;20040;-64
2022/04/24 07:04:45;;;;;;;9.48;6.40;;;;;;;;;;5031796;28;20026;-65
2022/04/24 07:07:11;;;;;;;9.50;6.18;;;;;;;;;;5033192;28;20034;-64
2022/04/24 07:09:36;;;;;;;7.93;5.72;;;;;;;;;;5030498;28;20130;-64
2022/04/24 07:12:01;;;;;;;9.15;5.97;;;;;;;;;;5023859;28;20032;-64
2022/04/24 07:14:27;;;;;;;11.63;6.63;;;;;;;;;;5032050;28;20025;-64
2022/04/24 07:16:52;;;;;;;11.82;6.65;;;;;;;;;;5034874;28;20472;-63
2022/04/24 07:19:18;;;;;;;14.60;8.02;;;;;;;;;;5027339;28;20033;-64
2022/04/24 07:21:43;;;;;;;8.93;6.20;;;;;;;;;;5027131;28;21069;-63
2022/04/24 07:24:08;;;;;;;19.33;6.70;;;;;;;;;;5031629;28;20054;-65
2022/04/24 07:26:34;;;;;;;10.50;6.93;;;;;;;;;;5023395;28;20032;-63
2022/04/24 07:28:59;;;;;;;9.98;6.65;;;;;;;;;;5020006;28;20042;-63
2022/04/24 07:31:25;;;;;;;15.10;6.53;;;;;;;;;;5047764;28;20033;-63
2022/04/24 07:33:52;;;;;;;10.52;6.85;;;;;;;;;;5029384;28;20045;-63
2022/04/24 07:36:18;;;;;;;12.90;6.70;;;;;;;;;;5044747;28;20029;-64
2022/04/24 07:38:43;;;;;;;12.57;6.90;;;;;;;;;;5036934;28;20029;-63
2022/04/24 07:41:09;;;;;;;11.13;6.45;;;;;;;;;;5039895;28;20036;-63
2022/04/24 07:43:34;;;;;;;10.38;6.97;;;;;;;;;;5025282;28;20364;-63
2022/04/24 07:46:00;;;;;;;9.43;6.85;;;;;;;;;;5035177;28;20037;-63
2022/04/24 07:48:26;;;;;;;9.55;6.60;;;;;;;;;;5017234;28;20399;-65
2022/04/24 07:50:52;;;;;;;10.77;6.60;;;;;;;;;;5042976;28;20025;-63
2022/04/24 07:53:18;;;;;;;9.70;6.72;;;;;;;;;;5046964;28;20090;-64
2022/04/24 07:55:48;;;;;;;10.93;7.20;;;;;;;;;;5043125;28;20033;-64
2022/04/24 07:58:15;;;;;;;9.77;6.50;;;;;;;;;;5045816;28;20033;-63
2022/04/24 08:00:41;;;;;;;12.02;7.20;;;;;;;;;;5045469;28;20064;-63
2022/04/24 08:03:08;;;;;;;10.63;7.05;;;;;;;;;;5031460;28;20048;-63
2022/04/24 08:05:45;;;;;;;9.50;6.95;;;;;;;;;;5033523;28;20029;-64
2022/04/24 08:08:14;;;;;;;10.80;6.50;;;;;;;;;;5051345;28;20025;-63
2022/04/24 08:10:45;;;;;;;10.93;7.13;;;;;;;;;;5019751;28;20030;-63
2022/04/24 08:13:10;;;;;;;10.23;7.10;;;;;;;;;;5034086;28;20033;-63
2022/04/24 08:15:37;;;;;;;11.95;7.30;;;;;;;;;;5028559;28;20040;-63
2022/04/24 08:18:04;;;;;;;15.98;7.32;;;;;;;;;;5046213;28;20128;-63
2022/04/24 08:20:31;;;;;;;10.95;7.43;;;;;;;;;;5035055;28;20087;-64
2022/04/24 08:23:01;;;;;;;10.90;7.30;;;;;;;;;;5047279;28;20084;-64
2022/04/24 08:25:28;;;;;;;11.73;7.53;;;;;;;;;;5026655;28;20029;-64
2022/04/24 08:27:55;;;;;;;12.27;8.57;;;;;;;;;;5034863;28;20044;-63
2022/04/24 08:30:22;;;;;;;11.73;8.65;;;;;;;;;;5034444;28;20065;-63
2022/04/24 08:32:48;;;;;;;13.63;8.40;;;;;;;;;;5032143;28;20483;-64
2022/04/24 08:35:16;;;;;;;12.15;8.25;;;;;;;;;;5030048;28;20041;-63
2022/04/24 08:37:42;;;;;;;11.13;7.72;;;;;;;;;;5047253;28;20051;-64
2022/04/24 08:40:12;;;;;;;15.07;8.35;;;;;;;;;;5038773;28;20176;-64
2022/04/24 08:42:39;;;;;;;11.75;8.32;;;;;;;;;;5036783;28;20033;-64
2022/04/24 08:45:07;;;;;;;14.23;9.50;;;;;;;;;;5037067;28;20091;-64
2022/04/24 08:47:32;;;;;;;12.95;9.05;;;;;;;;;;5025737;28;20037;-63
2022/04/24 08:50:00;;;;;;;13.60;9.50;;;;;;;;;;5019341;28;20474;-64
2022/04/24 08:52:27;;;;;;;12.60;8.75;;;;;;;;;;5031078;28;20455;-63
2022/04/24 08:54:54;;;;;;;13.48;9.27;;;;;;;;;;5027717;28;20116;-64
2022/04/24 08:57:26;;;;;;;13.93;9.52;;;;;;;;;;5040246;28;20033;-64
2022/04/24 08:59:53;;;;;;;15.82;9.10;;;;;;;;;;5029186;28;20061;-64
2022/04/24 09:02:18;;;;;;;11.68;8.80;;;;;;;;;;5024000;28;20045;-64
2022/04/24 09:04:43;;;;;;;13.15;8.80;;;;;;;;;;5043037;28;20390;-64
2022/04/24 09:07:10;;;;;;;12.27;8.30;;;;;;;;;;5052414;28;20610;-65
2022/04/24 09:09:41;;;;;;;13.27;8.70;;;;;;;;;;5032342;28;20036;-64
2022/04/24 09:12:15;;;;;;;12.65;8.85;;;;;;;;;;5040083;28;21010;-64
2022/04/24 09:14:46;;;;;;;11.95;8.32;;;;;;;;;;5022904;28;20889;-65
2022/04/24 09:17:17;;;;;;;13.13;8.20;;;;;;;;;;5024976;28;20033;-65
2022/04/24 09:19:43;;;;;;;14.40;8.85;;;;;;;;;;5042902;28;20036;-64
2022/04/24 09:22:10;;;;;;;13.25;8.50;;;;;;;;;;5049501;28;20049;-64
2022/04/24 09:24:45;;;;;;;11.45;8.60;;;;;;;;;;5047117;28;20048;-68
2022/04/24 09:27:22;;;;;;;12.55;8.52;;;;;;;;;;5052321;28;20464;-64
2022/04/24 09:30:00;;;;;;;13.57;9.18;;;;;;;;;;5028123;28;20047;-64
2022/04/24 09:32:27;;;;;;;11.48;8.05;;;;;;;;;;5027214;28;20364;-65
2022/04/24 09:34:53;;;;;;;13.75;8.75;;;;;;;;;;5031907;28;20044;-65
2022/04/24 09:37:19;;;;;;;14.57;8.52;;;;;;;;;;5038219;28;20033;-65
2022/04/24 09:39:46;;;;;;;14.13;9.07;;;;;;;;;;5031635;28;20030;-64
2022/04/24 09:42:13;;;;;;;14.50;8.95;;;;;;;;;;5022234;28;20467;-64
2022/04/24 09:44:50;;;;;;;11.48;8.18;;;;;;;;;;5014186;28;20119;-64
2022/04/24 09:47:33;;;;;;;13.68;7.95;;;;;;;;;;5025311;28;20053;-65
2022/04/24 09:50:00;;;;;;;12.07;8.50;;;;;;;;;;5033311;28;20060;-64
2022/04/24 09:52:25;;;;;;;12.68;8.77;;;;;;;;;;5033692;28;20029;-66
2022/04/24 09:54:53;;;;;;;11.82;8.70;;;;;;;;;;5032622;28;20041;-64
2022/04/24 09:57:21;;;;;;;10.60;7.75;;;;;;;;;;5047413;28;20040;-65
2022/04/24 09:59:47;;;;;;;11.35;8.15;;;;;;;;;;5042360;28;20025;-65
2022/04/24 10:02:15;;;;;;;11.98;8.50;;;;;;;;;;5034675;28;20029;-65
2022/04/24 10:04:42;;;;;;;11.13;8.10;;;;;;;;;;5015300;28;20044;-65
2022/04/24 10:07:12;;;;;;;12.57;8.23;;;;;;;;;;5018184;28;20099;-64
2022/04/24 10:09:43;;;;;;;12.70;8.20;;;;;;;;;;5032078;28;20033;-65
2022/04/24 10:12:14;;;;;;;10.43;7.72;;;;;;;;;;5032881;28;20348;-65
2022/04/24 10:14:50;;;;;;;14.18;7.55;;;;;;;;;;5025092;28;20109;-63
2022/04/24 10:17:26;;;;;;;12.23;7.82;;;;;;;;;;5016585;28;20052;-64
2022/04/24 10:20:28;;;;;;;10.88;7.88;;;;;;;;;;5027872;28;20067;-65
2022/04/24 10:22:55;;;;;;;10.55;7.93;;;;;;;;;;5014906;28;20076;-64
2022/04/24 10:25:40;;;;;;;10.82;7.95;;;;;;;;;;5027026;28;20126;-64
2022/04/24 10:28:09;;;;;;;9.68;7.72;;;;;;;;;;5032230;28;20033;-64
2022/04/24 10:30:35;;;;;;;9.95;7.65;;;;;;;;;;5024501;28;20470;-64
2022/04/24 10:33:22;;;;;;;9.75;7.65;;;;;;;;;;5028912;28;20190;-65
2022/04/24 10:35:50;;;;;;;11.15;7.80;;;;;;;;;;5032569;28;20033;-65
2022/04/24 10:38:17;;;;;;;14.55;7.50;;;;;;;;;;5046767;28;21895;-65
2022/04/24 10:40:56;;;;;;;12.57;7.35;;;;;;;;;;5030825;28;20033;-64
2022/04/24 10:43:23;;;;;;;10.27;8.00;;;;;;;;;;5030297;28;20037;-64
2022/04/24 10:45:49;;;;;;;13.00;7.60;;;;;;;;;;5028430;28;20028;-64
2022/04/24 10:48:15;;;;;;;10.90;7.70;;;;;;;;;;5025025;28;20671;-65
2022/04/24 10:50:52;;;;;;;9.32;7.30;;;;;;;;;;5025408;28;20030;-64
2022/04/24 10:53:18;;;;;;;10.77;7.35;;;;;;;;;;5023566;28;20114;-64
2022/04/24 10:55:43;;;;;;;10.60;7.38;;;;;;;;;;5026861;28;20108;-64
2022/04/24 10:58:10;;;;;;;11.90;7.68;;;;;;;;;;5036937;28;20478;-64
2022/04/24 11:00:37;;;;;;;10.68;7.88;;;;;;;;;;5038983;28;20089;-65
2022/04/24 11:03:14;;;;;;;9.30;7.65;;;;;;;;;;5019517;28;20037;-66
2022/04/24 11:05:45;;;;;;;9.13;7.32;;;;;;;;;;5021925;28;20303;-65
2022/04/24 11:08:17;;;;;;;;;;;;;;;;;;5025333;28;20507;-63
2022/04/24 11:10:44;;;;;;;8.93;7.38;;;;;;;;;;5019259;28;19924;-64
2022/04/24 11:13:11;;;;;;;10.30;7.47;;;;;;;;;;5019362;28;20395;-64
2022/04/24 11:15:42;;;;;;;10.65;7.65;;;;;;;;;;5036102;28;20040;-64
2022/04/24 11:18:20;;;;;;;9.00;7.25;;;;;;;;;;5036104;28;20037;-65
2022/04/24 11:21:06;;;;;;;9.50;7.40;;;;;;;;;;5035492;28;20033;-64
2022/04/24 11:23:38;;;;;;;9.95;7.28;;;;;;;;;;5032740;28;20045;-64
2022/04/24 11:26:08;;;;;;;9.60;7.10;;;;;;;;;;5044839;28;20033;-64
2022/04/24 11:28:38;;;;;;;10.57;7.53;;;;;;;;;;5043335;28;20467;-64
2022/04/24 11:31:22;;;;;;;9.38;7.60;;;;;;;;;;5043748;28;20045;-64
2022/04/24 11:33:52;;;;;;;11.30;7.72;;;;;;;;;;5030950;28;20037;-64
2022/04/24 11:36:18;;;;;;;8.63;7.22;;;;;;;;;;5034636;28;20069;-64
2022/04/24 11:38:51;;;;;;;9.40;7.40;;;;;;;;;;5049344;28;20155;-64
2022/04/24 11:41:18;;;;;;;11.57;7.32;;;;;;;;;;5028890;28;20018;-65
2022/04/24 11:43:44;;;;;;;8.75;7.05;;;;;;;;;;5034756;28;20029;-65
2022/04/24 11:50:13;;;;;;;11.13;6.97;;;;;;;;;;5025111;28;20049;-64
2022/04/24 11:51:49;;;;;;;9.55;7.18;;;;;;;;;;5036742;28;20037;-65
2022/04/24 11:54:15;;;;;;;9.20;6.80;;;;;;;;;;5052837;28;20035;-65
2022/04/24 11:56:42;;;;;;;8.60;7.00;;;;;;;;;;5041045;28;20102;-64
2022/04/24 11:59:14;;;;;;;9.43;7.00;;;;;;;;;;5049754;28;20459;-64
2022/04/24 12:01:39;;;;;;;9.30;6.63;;;;;;;;;;5049791;28;20025;-66
2022/04/24 12:04:05;;;;;;;8.18;6.57;;;;;;;;;;5051307;28;20132;-64
2022/04/24 12:06:32;;;;;;;9.23;6.70;;;;;;;;;;5024861;28;20064;-64
2022/04/24 12:09:06;;;;;;;7.75;6.22;;;;;;;;;;5028928;28;20083;-64
2022/04/24 12:11:32;;;;;;;7.80;6.53;;;;;;;;;;5035610;28;20033;-63
2022/04/24 12:14:06;;;;;;;7.65;6.20;;;;;;;;;;5051326;28;20025;-63
2022/04/24 12:16:32;;;;;;;8.93;7.18;;;;;;;;;;5033833;28;20040;-64
2022/04/24 12:18:59;;;;;;;8.65;6.95;;;;;;;;;;5038030;28;20076;-64
2022/04/24 12:21:26;;;;;;;9.02;6.53;;;;;;;;;;5034029;28;20082;-64
2022/04/24 12:23:53;;;;;;;8.35;6.78;;;;;;;;;;5034222;28;20045;-64
2022/04/24 12:26:20;;;;;;;9.05;6.95;;;;;;;;;;5051498;28;20025;-64
2022/04/24 12:28:47;;;;;;;7.85;6.43;;;;;;;;;;5049357;28;20105;-64
2022/04/24 12:31:43;;;;;;;8.13;6.78;;;;;;;;;;5046576;28;20487;-65
2022/04/24 12:34:08;;;;;;;8.77;7.00;;;;;;;;;;5034473;28;20080;-65
2022/04/24 12:36:34;;;;;;;8.43;6.78;;;;;;;;;;5032739;28;20061;-64
2022/04/24 12:39:04;;;;;;;9.85;7.03;;;;;;;;;;5031506;28;20055;-65
2022/04/24 12:41:30;;;;;;;8.20;6.43;;;;;;;;;;5033933;28;20029;-65
2022/04/24 12:44:04;;;;;;;7.35;6.28;;;;;;;;;;5032447;28;20040;-64
2022/04/24 12:46:30;;;;;;;8.77;6.60;;;;;;;;;;5033853;28;20029;-64
2022/04/24 12:48:56;;;;;;;10.52;6.50;;;;;;;;;;5032542;28;20483;-64
2022/04/24 12:51:26;;;;;;;7.80;6.03;;;;;;;;;;5032706;28;20021;-64
2022/04/24 12:53:55;;;;;;;8.10;6.35;;;;;;;;;;5032511;28;20382;-64
2022/04/24 12:56:21;;;;;;;9.93;6.35;;;;;;;;;;5024247;28;20045;-64
2022/04/24 12:58:47;;;;;;;8.40;5.90;;;;;;;;;;5022066;28;20034;-64
2022/04/24 13:01:14;;;;;;;7.00;5.97;;;;;;;;;;5011582;28;20042;-63
2022/04/24 13:03:40;;;;;;;7.95;6.18;;;;;;;;;;5013705;28;20045;-63
2022/04/24 13:06:07;;;;;;;8.52;6.20;;;;;;;;;;5019286;28;20036;-63
2022/04/24 13:08:33;;;;;;;8.10;6.50;;;;;;;;;;5033185;28;20091;-65
2022/04/24 13:10:58;;;;;;;8.75;6.53;;;;;;;;;;5032534;28;20406;-65
2022/04/24 13:13:24;;;;;;;10.23;6.30;;;;;;;;;;5033002;28;20044;-65
2022/04/24 13:18:07;;;;;;;7.20;5.60;;;;;;;;;;5033657;28;20034;-65
2022/04/24 13:18:37;;;;;;;6.93;5.32;;;;;;;;;;5032991;28;20029;-64
2022/04/24 13:21:02;;;;;;;7.55;5.68;;;;;;;;;;5033103;28;20029;-65
2022/04/24 13:23:28;;;;;;;7.97;6.05;;;;;;;;;;5031599;28;20050;-65
2022/04/24 13:25:54;;;;;;;10.65;6.03;;;;;;;;;;5031724;28;20029;-66
2022/04/24 13:28:20;;;;;;;8.88;5.63;;;;;;;;;;5031738;28;20025;-65
2022/04/24 13:30:46;;;;;;;6.53;5.50;;;;;;;;;;5032986;28;20033;-65
2022/04/24 13:33:14;;;;;;;7.90;6.00;;;;;;;;;;5030811;28;20025;-66
2022/04/24 13:35:39;;;;;;;7.18;5.32;;;;;;;;;;5031354;28;20040;-65
2022/04/24 13:38:39;;;;;;;5.90;5.20;;;;;;;;;;5032102;28;20033;-65
2022/04/24 13:41:02;;;;;;;9.65;5.70;;;;;;;;;;5032370;28;20071;-65
2022/04/24 13:43:28;;;;;;;;;;;;;;;;;;5032887;28;20036;-64
2022/04/24 13:45:54;;;;;;;8.55;5.88;;;;;;;;;;5031027;28;20000;-65
2022/04/24 13:48:26;;;;;;;7.65;5.43;;;;;;;;;;5017192;28;20040;-65
2022/04/24 13:50:55;;;;;;;8.35;5.18;;;;;;;;;;5013478;28;20038;-64
2022/04/24 13:53:22;;;;;;;9.15;5.75;;;;;;;;;;5014250;28;20180;-65
2022/04/24 13:55:47;;;;;;;7.95;5.43;;;;;;;;;;5012505;28;20038;-64
2022/04/24 13:58:14;;;;;;;7.95;5.30;;;;;;;;;;5009490;28;20052;-65
2022/04/24 14:00:42;;;;;;;7.93;5.28;;;;;;;;;;5022307;28;20125;-65
2022/04/24 14:03:08;;;;;;;7.32;5.40;;;;;;;;;;5021399;28;20030;-64
2022/04/24 14:05:34;;;;;;;7.43;5.32;;;;;;;;;;5017752;28;20037;-64
2022/04/24 14:07:59;;;;;;;6.97;5.40;;;;;;;;;;5017049;28;20376;-64
2022/04/24 14:10:25;;;;;;;7.22;5.43;;;;;;;;;;5028046;28;20025;-64
2022/04/24 14:12:51;;;;;;;6.75;5.20;;;;;;;;;;5012021;28;20141;-64
2022/04/24 14:15:26;;;;;;;7.55;5.20;;;;;;;;;;5011590;28;20088;-64
2022/04/24 14:17:55;;;;;;;7.88;5.70;;;;;;;;;;5019817;28;20025;-64
2022/04/24 14:20:24;;;;;;;8.27;5.28;;;;;;;;;;5032472;28;20032;-64
2022/04/24 14:22:49;;;;;;;8.80;5.25;;;;;;;;;;5043283;28;20120;-64
2022/04/24 14:25:15;;;;;;;6.93;5.03;;;;;;;;;;5029807;28;20108;-64
2022/04/24 14:27:40;;;;;;;7.97;5.30;;;;;;;;;;5032164;28;20083;-64
2022/04/24 14:30:07;;;;;;;10.10;5.30;;;;;;;;;;5031728;28;20021;-65
2022/04/24 14:32:33;;;;;;;6.55;5.13;;;;;;;;;;5030533;28;20052;-64
2022/04/24 14:34:59;;;;;;;7.35;5.07;;;;;;;;;;5023126;28;20088;-64
2022/04/24 14:37:25;;;;;;;7.03;5.00;;;;;;;;;;5027803;28;20033;-65
2022/04/24 14:39:50;;;;;;;11.02;5.20;;;;;;;;;;5032096;28;20040;-65